createdAt,value
2022-08-07T00:00:26.411Z,28.97
2022-08-07T00:02:53.999Z,29.32
2022-08-07T00:05:23.596Z,29.45
2022-08-07T00:07:58.274Z,29.41
2022-08-07T00:10:30.411Z,29.19
2022-08-07T00:13:02.458Z,28.98
2022-08-07T00:15:46.409Z,28.79
2022-08-07T00:18:24.556Z,28.60
2022-08-07T00:21:01.718Z,28.86
2022-08-07T00:23:31.379Z,29.20
2022-08-07T00:26:13.014Z,29.39
2022-08-07T00:28:55.363Z,29.40
2022-08-07T00:31:23.093Z,29.33
2022-08-07T00:33:50.756Z,29.23
2022-08-07T00:36:19.133Z,29.20
2022-08-07T00:38:46.590Z,29.10
2022-08-07T00:41:26.028Z,28.91
2022-08-07T00:43:59.418Z,28.72
2022-08-07T00:46:30.996Z,28.53
2022-08-07T00:49:03.211Z,28.67
2022-08-07T00:51:57.097Z,29.04
2022-08-07T00:54:19.861Z,29.29
2022-08-07T00:56:49.750Z,29.26
2022-08-07T00:59:20.255Z,29.07
2022-08-07T01:02:04.252Z,29.00
2022-08-07T01:04:43.255Z,28.90
2022-08-07T01:07:12.663Z,28.77
2022-08-07T01:10:05.669Z,28.65
2022-08-07T01:12:30.892Z,28.50
2022-08-07T01:15:01.406Z,28.29
2022-08-07T01:17:33.033Z,28.46
2022-08-07T01:20:16.881Z,28.74
2022-08-07T01:22:54.159Z,28.92
2022-08-07T01:25:55.880Z,28.84
2022-08-07T01:28:23.522Z,28.70
2022-08-07T01:30:55.485Z,28.50
2022-08-07T01:33:25.252Z,28.34
2022-08-07T01:36:16.734Z,28.64
2022-08-07T01:38:45.974Z,29.01
2022-08-07T01:41:26.110Z,29.22
2022-08-07T01:43:57.168Z,29.20
2022-08-07T01:46:26.744Z,29.07
2022-08-07T01:48:55.051Z,28.90
2022-08-07T01:52:04.055Z,28.65
2022-08-07T01:54:32.650Z,28.47
2022-08-07T01:57:20.406Z,28.29
2022-08-07T02:00:00.656Z,28.68
2022-08-07T02:03:18.504Z,29.07
2022-08-07T02:05:47.555Z,29.06
2022-08-07T02:08:23.779Z,28.88
2022-08-07T02:10:55.462Z,28.62
2022-08-07T02:13:59.839Z,28.38
2022-08-07T02:16:29.951Z,28.61
2022-08-07T02:19:05.685Z,28.89
2022-08-07T02:21:56.509Z,28.96
2022-08-07T02:24:25.563Z,28.85
2022-08-07T02:27:01.635Z,28.70
2022-08-07T02:29:31.882Z,28.42
2022-08-07T02:32:01.943Z,28.66
2022-08-07T02:34:33.013Z,28.98
2022-08-07T02:37:08.355Z,29.05
2022-08-07T02:39:42.964Z,28.99
2022-08-07T02:42:14.649Z,28.87
2022-08-07T02:44:48.196Z,28.69
2022-08-07T02:47:19.717Z,29.01
2022-08-07T02:49:56.109Z,29.32
2022-08-07T02:52:47.914Z,29.44
2022-08-07T02:55:28.413Z,29.50
2022-08-07T02:58:12.618Z,29.49
2022-08-07T03:00:46.717Z,29.44
2022-08-07T03:03:21.065Z,29.99
2022-08-07T03:05:56.599Z,30.61
2022-08-07T03:08:26.782Z,30.94
2022-08-07T03:10:57.622Z,31.26
2022-08-07T03:13:29.616Z,31.50
2022-08-07T03:16:07.526Z,31.55
2022-08-07T03:18:36.192Z,31.64
2022-08-07T03:21:08.691Z,31.71
2022-08-07T03:24:19.990Z,32.25
2022-08-07T03:26:33.679Z,33.12
2022-08-07T03:29:11.110Z,33.68
2022-08-07T03:31:46.213Z,33.83
2022-08-07T03:34:22.352Z,33.92
2022-08-07T03:36:54.245Z,33.97
2022-08-07T03:39:56.616Z,34.02
2022-08-07T03:42:12.354Z,34.09
2022-08-07T03:44:40.782Z,34.07
2022-08-07T03:47:14.380Z,34.21
2022-08-07T03:49:48.000Z,34.44
2022-08-07T03:52:27.382Z,34.80
2022-08-07T03:55:07.486Z,35.16
2022-08-07T03:58:34.082Z,35.51
2022-08-07T04:00:33.613Z,35.68
2022-08-07T04:03:04.282Z,35.30
2022-08-07T04:05:39.379Z,34.82
2022-08-07T04:08:18.525Z,34.31
2022-08-07T04:10:54.528Z,33.74
2022-08-07T04:14:10.311Z,33.25
2022-08-07T04:16:31.220Z,32.83
2022-08-07T04:19:12.352Z,32.44
2022-08-07T04:21:48.023Z,32.68
2022-08-07T04:24:33.898Z,33.08
2022-08-07T04:27:15.306Z,33.32
2022-08-07T04:30:02.202Z,34.05
2022-08-07T04:32:48.479Z,35.08
2022-08-07T04:35:26.800Z,35.90
2022-08-07T04:38:06.436Z,36.65
2022-08-07T04:40:51.194Z,37.19
2022-08-07T04:44:11.806Z,37.57
2022-08-07T04:47:04.776Z,37.60
2022-08-07T04:50:12.148Z,37.55
2022-08-07T04:52:54.246Z,37.34
2022-08-07T04:58:12.323Z,36.81
2022-08-07T05:00:07.864Z,37.16
2022-08-07T05:02:35.782Z,38.19
2022-08-07T05:05:52.685Z,39.04
2022-08-07T05:09:00.126Z,39.74
2022-08-07T05:11:57.057Z,39.99
2022-08-07T05:14:52.167Z,39.88
2022-08-07T05:17:52.503Z,40.75
2022-08-07T05:20:10.083Z,40.90
2022-08-07T05:22:39.088Z,41.09
2022-08-07T05:25:11.770Z,41.38
2022-08-07T05:28:16.140Z,41.60
2022-08-07T05:30:42.852Z,41.72
2022-08-07T05:33:13.154Z,41.99
2022-08-07T05:35:43.826Z,42.50
2022-08-07T05:38:13.193Z,42.99
2022-08-07T05:41:02.168Z,43.23
2022-08-07T05:43:43.444Z,43.50
2022-08-07T05:46:29.406Z,43.99
2022-08-07T05:48:59.476Z,44.11
2022-08-07T05:51:31.417Z,44.15
2022-08-07T05:54:13.263Z,44.09
2022-08-07T05:56:51.274Z,43.95
2022-08-07T05:59:21.352Z,44.07
2022-08-07T06:01:54.792Z,44.28
2022-08-07T06:04:26.332Z,44.66
2022-08-07T06:07:03.978Z,44.76
2022-08-07T06:09:56.604Z,44.90
2022-08-07T06:12:31.687Z,44.86
2022-08-07T06:15:05.750Z,44.80
2022-08-07T06:17:38.035Z,45.06
2022-08-07T06:20:12.749Z,45.22
2022-08-07T06:23:02.326Z,45.30
2022-08-07T06:25:54.859Z,45.40
2022-08-07T06:28:27.193Z,44.79
2022-08-07T06:30:55.978Z,44.66
2022-08-07T06:33:24.823Z,45.04
2022-08-07T06:36:12.001Z,45.22
2022-08-07T06:38:58.875Z,45.26
2022-08-07T06:42:01.951Z,45.08
2022-08-07T06:44:41.282Z,45.08
2022-08-07T06:47:10.308Z,45.25
2022-08-07T06:49:51.920Z,45.33
2022-08-07T06:52:38.163Z,45.12
2022-08-07T06:55:33.949Z,44.09
2022-08-07T06:58:11.517Z,42.44
2022-08-07T07:00:47.021Z,41.17
2022-08-07T07:03:26.351Z,39.95
2022-08-07T07:06:11.531Z,38.47
2022-08-07T07:08:39.894Z,37.65
2022-08-07T07:12:08.868Z,36.97
2022-08-07T07:14:03.801Z,36.40
2022-08-07T07:16:45.445Z,35.90
2022-08-07T07:19:55.923Z,35.43
2022-08-07T07:22:36.560Z,35.07
2022-08-07T07:25:13.975Z,34.78
2022-08-07T07:27:56.083Z,34.67
2022-08-07T07:30:38.616Z,34.57
2022-08-07T07:33:12.028Z,34.39
2022-08-07T07:35:50.648Z,34.03
2022-08-07T07:38:31.663Z,33.74
2022-08-07T07:41:08.614Z,33.60
2022-08-07T07:44:14.732Z,33.60
2022-08-07T07:46:39.931Z,33.53
2022-08-07T07:50:32.477Z,33.40
2022-08-07T07:52:10.401Z,33.26
2022-08-07T07:54:40.013Z,33.12
2022-08-07T07:57:43.598Z,33.04
2022-08-07T08:00:10.048Z,33.05
2022-08-07T08:03:01.135Z,33.07
2022-08-07T08:05:42.829Z,33.04
2022-08-07T08:08:35.708Z,32.94
2022-08-07T08:11:16.153Z,32.96
2022-08-07T08:13:53.988Z,32.91
2022-08-07T08:16:40.746Z,32.90
2022-08-07T08:20:19.750Z,32.92
2022-08-07T08:22:33.002Z,33.06
2022-08-07T08:25:41.867Z,33.11
2022-08-07T08:28:17.026Z,33.19
2022-08-07T08:30:57.498Z,33.15
2022-08-07T08:33:33.094Z,33.16
2022-08-07T08:36:03.226Z,33.15
2022-08-07T08:38:50.857Z,33.25
2022-08-07T08:41:58.667Z,33.28
2022-08-07T08:44:49.464Z,33.40
2022-08-07T08:47:31.610Z,33.36
2022-08-07T08:50:35.378Z,33.45
2022-08-07T08:53:34.268Z,33.46
2022-08-07T08:56:16.965Z,33.29
2022-08-07T08:59:12.785Z,33.30
2022-08-07T09:02:08.756Z,33.17
2022-08-07T09:04:58.609Z,33.20
2022-08-07T09:07:28.835Z,33.08
2022-08-07T09:10:19.021Z,32.91
2022-08-07T09:13:03.721Z,32.94
2022-08-07T09:16:21.618Z,32.94
2022-08-07T09:18:41.743Z,32.89
2022-08-07T09:22:22.735Z,32.89
2022-08-07T09:25:33.868Z,32.90
2022-08-07T09:30:03.470Z,32.66
2022-08-07T09:31:08.680Z,32.61
2022-08-07T09:34:08.738Z,32.53
2022-08-07T09:37:00.110Z,32.51
2022-08-07T09:39:54.943Z,32.44
2022-08-07T09:42:29.303Z,32.46
2022-08-07T09:47:25.583Z,32.40
2022-08-07T09:48:50.121Z,32.19
2022-08-07T09:52:16.094Z,32.08
2022-08-07T09:54:44.146Z,32.06
2022-08-07T09:57:46.727Z,32.12
2022-08-07T10:00:29.935Z,32.12
2022-08-07T10:04:06.247Z,32.09
2022-08-07T10:06:32.084Z,31.91
2022-08-07T10:09:34.326Z,31.80
2022-08-07T10:12:31.154Z,31.72
2022-08-07T10:15:32.873Z,31.67
2022-08-07T10:18:17.571Z,31.68
2022-08-07T10:22:14.982Z,31.67
2022-08-07T10:24:18.637Z,31.85
2022-08-07T10:26:58.141Z,32.03
2022-08-07T10:29:45.786Z,32.17
2022-08-07T10:32:51.569Z,32.15
2022-08-07T10:35:53.508Z,32.18
2022-08-07T10:38:48.868Z,32.15
2022-08-07T10:41:51.894Z,32.01
2022-08-07T10:44:39.061Z,32.00
2022-08-07T10:48:11.403Z,31.99
2022-08-07T10:50:52.568Z,32.12
2022-08-07T10:53:44.069Z,32.25
2022-08-07T10:56:34.586Z,32.30
2022-08-07T10:59:41.304Z,32.57
2022-08-07T11:02:35.107Z,32.77
2022-08-07T11:05:35.691Z,32.88
2022-08-07T11:08:30.559Z,32.54
2022-08-07T11:11:06.526Z,32.56
2022-08-07T11:14:46.195Z,32.59
2022-08-07T11:16:37.278Z,32.92
2022-08-07T11:19:35.559Z,33.33
2022-08-07T11:22:18.808Z,33.59
2022-08-07T11:25:14.889Z,33.90
2022-08-07T11:28:01.269Z,34.08
2022-08-07T11:30:43.006Z,34.18
2022-08-07T11:33:15.094Z,34.13
2022-08-07T11:35:59.712Z,34.05
2022-08-07T11:38:56.460Z,34.06
2022-08-07T11:42:02.170Z,34.11
2022-08-07T11:44:28.456Z,34.16
2022-08-07T11:47:39.210Z,34.12
2022-08-07T11:50:57.911Z,33.96
2022-08-07T11:54:10.464Z,33.71
2022-08-07T11:56:59.872Z,33.23
2022-08-07T12:00:10.021Z,32.76
2022-08-07T12:02:56.165Z,32.20
2022-08-07T12:06:02.799Z,31.72
2022-08-07T12:09:05.584Z,31.10
2022-08-07T12:12:10.782Z,30.63
2022-08-07T12:14:39.232Z,30.29
2022-08-07T12:17:20.011Z,30.06
2022-08-07T12:20:04.716Z,29.72
2022-08-07T12:22:58.241Z,29.42
2022-08-07T12:26:06.139Z,29.09
2022-08-07T12:28:57.939Z,29.40
2022-08-07T12:31:53.304Z,29.60
2022-08-07T12:34:33.811Z,29.38
2022-08-07T12:37:08.336Z,29.20
2022-08-07T12:39:50.900Z,28.97
2022-08-07T12:42:27.880Z,28.77
2022-08-07T12:45:05.773Z,28.59
2022-08-07T12:48:51.822Z,28.45
2022-08-07T12:51:21.433Z,28.97
2022-08-07T12:54:37.305Z,29.27
2022-08-07T12:57:09.582Z,29.19
2022-08-07T12:59:55.475Z,29.04
2022-08-07T13:02:25.017Z,28.84
2022-08-07T13:06:02.707Z,28.59
2022-08-07T13:08:31.070Z,28.42
2022-08-07T13:11:20.133Z,28.83
2022-08-07T13:13:58.445Z,29.01
2022-08-07T13:17:06.248Z,28.87
2022-08-07T13:19:51.758Z,28.51
2022-08-07T13:22:32.523Z,28.34
2022-08-07T13:25:24.175Z,28.07
2022-08-07T13:28:11.390Z,28.46
2022-08-07T13:30:49.147Z,28.77
2022-08-07T13:34:33.577Z,28.75
2022-08-07T13:36:39.402Z,28.46
2022-08-07T13:39:49.225Z,28.26
2022-08-07T13:42:19.139Z,27.87
2022-08-07T13:45:11.732Z,28.12
2022-08-07T13:48:06.094Z,28.16
2022-08-07T13:50:34.240Z,27.74
2022-08-07T13:53:21.975Z,27.30
2022-08-07T13:55:54.586Z,26.95
2022-08-07T13:58:56.187Z,26.68
2022-08-07T14:01:26.551Z,27.10
2022-08-07T14:04:09.617Z,27.32
2022-08-07T14:06:40.826Z,27.12
2022-08-07T14:09:16.968Z,26.90
2022-08-07T14:12:10.309Z,26.55
2022-08-07T14:14:51.279Z,26.40
2022-08-07T14:18:13.617Z,26.76
2022-08-07T14:20:41.883Z,26.97
2022-08-07T14:23:17.951Z,26.92
2022-08-07T14:26:05.705Z,26.72
2022-08-07T14:28:57.124Z,26.57
2022-08-07T14:31:42.372Z,26.43
2022-08-07T14:34:20.185Z,27.02
2022-08-07T14:36:56.344Z,27.34
2022-08-07T14:40:17.213Z,27.20
2022-08-07T14:42:18.597Z,27.02
2022-08-07T14:44:59.753Z,26.88
2022-08-07T14:47:47.201Z,26.81
2022-08-07T14:50:19.824Z,27.22
2022-08-07T14:52:50.191Z,27.69
2022-08-07T14:55:18.830Z,27.86
2022-08-07T14:57:58.517Z,27.80
2022-08-07T15:00:31.240Z,27.58
2022-08-07T15:03:19.045Z,27.39
2022-08-07T15:05:54.174Z,27.19
2022-08-07T15:08:47.603Z,27.64
2022-08-07T15:11:50.805Z,28.05
2022-08-07T15:14:17.994Z,28.16
2022-08-07T15:16:54.735Z,28.05
2022-08-07T15:20:30.426Z,27.61
2022-08-07T15:22:29.080Z,27.43
2022-08-07T15:25:12.890Z,27.33
2022-08-07T15:28:32.339Z,27.54
2022-08-07T15:33:33.881Z,27.87
2022-08-07T15:36:05.713Z,27.68
2022-08-07T15:44:23.850Z,27.49
2022-08-07T15:47:03.652Z,27.77
2022-08-07T15:52:30.331Z,27.47
2022-08-07T15:55:03.386Z,27.28
2022-08-07T15:57:47.528Z,27.03
2022-08-07T16:00:31.696Z,27.25
2022-08-07T16:03:21.745Z,27.35
2022-08-07T16:05:59.195Z,27.33
2022-08-07T16:08:37.884Z,27.14
2022-08-07T16:11:26.281Z,26.89
2022-08-07T16:14:09.541Z,26.59
2022-08-07T16:16:56.987Z,26.92
2022-08-07T16:19:42.196Z,27.16
2022-08-07T16:22:54.900Z,27.03
2022-08-07T16:25:52.677Z,26.77
2022-08-07T16:29:18.540Z,26.49
2022-08-07T16:31:51.329Z,26.27
2022-08-07T16:34:45.265Z,26.64
2022-08-07T16:38:06.318Z,26.88
2022-08-07T16:41:54.288Z,26.29
2022-08-07T16:45:14.791Z,26.50
2022-08-07T16:47:51.287Z,27.03
2022-08-07T16:50:48.157Z,27.19
2022-08-07T16:54:01.252Z,27.06
2022-08-07T16:56:43.063Z,26.85
2022-08-07T16:59:46.167Z,26.68
2022-08-07T17:03:05.946Z,27.08
2022-08-07T17:06:28.651Z,27.31
2022-08-07T17:09:04.159Z,27.18
2022-08-07T17:12:04.705Z,26.92
2022-08-07T17:15:00.582Z,26.50
2022-08-07T17:17:49.546Z,26.16
2022-08-07T17:20:38.040Z,26.47
2022-08-07T17:23:12.839Z,26.55
2022-08-07T17:26:24.344Z,26.54
2022-08-07T17:28:58.471Z,26.38
2022-08-07T17:31:44.225Z,26.14
2022-08-07T17:35:08.872Z,26.48
2022-08-07T17:38:09.625Z,26.80
2022-08-07T17:40:34.373Z,26.56
2022-08-07T17:43:15.253Z,26.33
2022-08-07T17:45:55.778Z,26.00
2022-08-07T17:48:31.934Z,26.44
2022-08-07T17:51:01.700Z,26.53
2022-08-07T17:54:02.256Z,26.50
2022-08-07T17:56:29.884Z,26.36
2022-08-07T17:58:57.338Z,26.13
2022-08-07T18:01:46.505Z,26.36
2022-08-07T18:04:40.399Z,26.52
2022-08-07T18:07:24.465Z,26.51
2022-08-07T18:10:33.068Z,26.38
2022-08-07T18:13:16.949Z,26.04
2022-08-07T18:16:03.451Z,25.74
2022-08-07T18:21:12.638Z,26.02
2022-08-07T18:22:05.385Z,26.24
2022-08-07T18:24:41.291Z,26.15
2022-08-07T18:27:44.896Z,25.94
2022-08-07T18:30:32.785Z,25.61
2022-08-07T18:33:35.209Z,25.86
2022-08-07T18:36:32.714Z,26.03
2022-08-07T18:40:07.320Z,25.87
2022-08-07T18:42:17.194Z,25.63
2022-08-07T18:45:44.363Z,25.35
2022-08-07T18:48:02.507Z,25.87
2022-08-07T18:50:48.236Z,26.13
2022-08-07T18:53:21.921Z,26.02
2022-08-07T18:56:19.328Z,25.70
2022-08-07T18:59:47.085Z,25.41
2022-08-07T19:02:18.365Z,25.73
2022-08-07T19:05:15.454Z,25.93
2022-08-07T19:08:03.751Z,25.79
2022-08-07T19:10:49.832Z,25.67
2022-08-07T19:13:35.904Z,25.46
2022-08-07T19:16:42.939Z,25.78
2022-08-07T19:19:19.280Z,26.00
2022-08-07T19:22:11.170Z,25.92
2022-08-07T19:24:44.666Z,25.70
2022-08-07T19:28:57.868Z,25.49
2022-08-07T19:31:00.551Z,25.70
2022-08-07T19:33:10.152Z,25.94
2022-08-07T19:35:46.901Z,25.96
2022-08-07T19:38:17.663Z,25.78
2022-08-07T19:40:50.438Z,25.50
2022-08-07T19:43:48.938Z,25.80
2022-08-07T19:46:17.827Z,26.02
2022-08-07T19:48:56.399Z,26.03
2022-08-07T19:51:52.839Z,25.86
2022-08-07T19:54:33.335Z,25.57
2022-08-07T19:58:01.619Z,25.41
2022-08-07T19:59:59.956Z,26.04
2022-08-07T20:02:39.198Z,26.31
2022-08-07T20:05:11.600Z,25.59
2022-08-07T20:07:46.509Z,25.40
2022-08-07T20:10:36.711Z,25.17
2022-08-07T20:13:27.111Z,25.40
2022-08-07T20:16:01.363Z,25.35
2022-08-07T20:18:33.373Z,25.01
2022-08-07T20:21:21.143Z,24.71
2022-08-07T20:23:57.819Z,24.71
2022-08-07T20:26:38.704Z,25.17
2022-08-07T20:29:47.200Z,25.28
2022-08-07T20:32:05.964Z,25.06
2022-08-07T20:34:50.817Z,24.81
2022-08-07T20:37:46.828Z,24.45
2022-08-07T20:40:32.985Z,24.93
2022-08-07T20:43:03.761Z,25.28
2022-08-07T20:46:27.149Z,25.37
2022-08-07T20:48:34.482Z,25.24
2022-08-07T20:51:09.505Z,24.97
2022-08-07T20:54:04.580Z,25.37
2022-08-07T20:56:32.313Z,25.70
2022-08-07T20:59:05.062Z,25.76
2022-08-07T21:01:45.851Z,25.62
2022-08-07T21:04:28.053Z,25.21
2022-08-07T21:07:04.306Z,24.87
2022-08-07T21:09:52.740Z,25.27
2022-08-07T21:12:31.896Z,25.40
2022-08-07T21:15:03.446Z,25.47
2022-08-07T21:18:03.233Z,25.28
2022-08-07T21:20:29.688Z,25.12
2022-08-07T21:23:07.638Z,24.76
2022-08-07T21:26:05.769Z,25.01
2022-08-07T21:28:50.306Z,25.16
2022-08-07T21:31:50.140Z,25.10
2022-08-07T21:34:31.919Z,25.02
2022-08-07T21:37:02.017Z,24.72
2022-08-07T21:39:55.147Z,24.95
2022-08-07T21:42:56.256Z,25.29
2022-08-07T21:46:09.984Z,25.38
2022-08-07T21:48:42.349Z,25.09
2022-08-07T21:51:54.557Z,24.93
2022-08-07T21:54:58.081Z,25.24
2022-08-07T21:57:39.354Z,25.27
2022-08-07T22:00:23.246Z,25.22
2022-08-07T22:03:30.660Z,24.92
2022-08-07T22:06:06.554Z,24.54
2022-08-07T22:08:42.635Z,24.95
2022-08-07T22:11:11.483Z,25.13
2022-08-07T22:13:51.848Z,25.15
2022-08-07T22:16:56.591Z,24.99
2022-08-07T22:19:38.994Z,24.74
2022-08-07T22:22:28.669Z,24.43
2022-08-07T22:25:03.388Z,24.80
2022-08-07T22:27:34.028Z,25.11
2022-08-07T22:30:26.585Z,25.06
2022-08-07T22:33:09.319Z,24.74
2022-08-07T22:35:45.963Z,24.43
2022-08-07T22:38:24.065Z,24.83
2022-08-07T22:42:04.219Z,24.89
2022-08-07T22:44:24.804Z,24.69
2022-08-07T22:47:17.170Z,24.48
2022-08-07T22:49:54.521Z,24.34
2022-08-07T22:52:47.128Z,24.53
2022-08-07T22:55:43.640Z,24.82
2022-08-07T22:58:39.529Z,24.80
2022-08-07T23:01:50.018Z,24.66
2022-08-07T23:04:53.358Z,24.49
2022-08-07T23:07:46.608Z,24.96
2022-08-07T23:10:45.592Z,25.12
2022-08-07T23:13:49.191Z,24.96
2022-08-07T23:16:46.682Z,24.63
2022-08-07T23:20:19.508Z,24.39
2022-08-07T23:23:14.646Z,24.78
2022-08-07T23:26:18.760Z,25.09
2022-08-07T23:29:01.808Z,24.89
2022-08-07T23:34:18.597Z,24.64
2022-08-07T23:35:12.579Z,24.38
2022-08-07T23:38:04.101Z,24.65
2022-08-07T23:40:49.275Z,24.87
2022-08-07T23:43:52.754Z,24.71
2022-08-07T23:46:43.196Z,24.60
2022-08-07T23:49:50.669Z,24.40
2022-08-07T23:52:53.853Z,24.70
2022-08-07T23:55:53.448Z,24.79
2022-08-07T23:58:31.883Z,24.75
